Kenneth Haugstad

Kenneth Haugstad

Statistiques 2026

  • Courses courues : -
  • Nb de victoires : -
  • Nb de places : -
  • Écart gagnant : 12
  • Réussite à la gagne : -
  • Réussite à la place : -
Musique : (16) 0a 0a Da 3a 0a 4a Da Da 0a 2a 5a 0a 1a 0a 5a 5a 3a 0a
DateRangCatégorieAlloc.Dist.HippodromeChevalRed. KmSpé.
25/08/13 4 Trot 6 276€ 1 640m Swe-Vaggeryd Victory Hill 1'12"1 Attelé
25/08/13 1 Trot 1 569€ 1 640m Swe-Vaggeryd Rare Wise As 1'15"0 Attelé
26/08/13 2 Trot 2 615€ 1 640m Swe-Halmstad Jeans N. Overhalls 1'13"8 Attelé
26/08/13 2 Trot 2 092€ 2 140m Swe-Halmstad Pilagardens Luxor 1'14"2 Attelé
27/08/13 5 Trot 4 184€ 1 640m Swe-Jagersro Caddie Eagle 1'12"4 Attelé
27/08/13 0 Trot 2 615€ 1 640m Swe-Jagersro Topas M.S. Attelé
28/08/13 3 Trot 6 276€ 3 160m Swe-Solvalla Yamani Hornline 1'15"0 Attelé
29/08/13 0 Trot 6 276€ 3 140m Swe-Aby Tag Laday 1'16"7 Attelé
29/08/13 0 Trot 4 707€ 1 640m Swe-Aby Proud Victory Rose 1'12"6 Attelé
30/08/13 D Trot 2 092€ 2 140m Swe-Jagersro Neptun Tilly Attelé
31/08/13 6 Trot 15 690€ 2 140m Swe-Jagersro Rod Stewart 1"14'5 Attelé
01/09/13 0 Trot 20 920€ 2 640m Swe-Jagersro Indian Shore 1'16"1 Attelé
01/09/13 4 Trot 10 460€ 1 640m Swe-Jagersro Super Ferrari 1'13"5 Attelé
01/09/13 7 Trot 10 460€ 2 140m Swe-Jagersro Runabout 1'14"8 Attelé
01/09/13 0 Trot 5 230€ 1 640m Swe-Jagersro Tikitaka Time 1'14"4 Attelé
02/09/13 0 Trot 2 092€ 1 609m Swe-Tingsryd Jeans N. Overhalls Attelé
04/09/13 0 Trot 15 690€ 2 140m Swe-Solvalla Barracuda River 1'11"9 Attelé
04/09/13 0 Trot 10 460€ 2 140m Swe-Solvalla M.T. Invader 1'15"2 Attelé
05/09/13 7 Trot 2 615€ 1 640m Swe-Aby Bergshults Leffe 1'12"9 Attelé
05/09/13 4 Trot 2 615€ 2 140m Swe-Aby Umberto Star 1'14"4 Attelé
09/09/13 6 Trot 3 661€ 1 640m Swe-Halmstad Havbergs Mimi 1'13"2 Attelé
09/09/13 6 Trot 3 661€ 3 160m Swe-Halmstad Que Linda 1'15"6 Attelé
09/09/13 0 Trot 1 569€ 2 140m Swe-Halmstad Maniac Face 1'19"4 Attelé
09/09/13 5 Trot 3 138€ 1 640m Swe-Halmstad Spirit Real 1'17"3 Attelé
10/09/13 5 Trot 3 661€ 2 640m Swe-Jagersro Raptor Lavec 1'15"4 Attelé
10/09/13 2 Trot 7 845€ 2 160m Swe-Jagersro Red Rose America 1'14"7 Attelé
10/09/13 0 Trot 3 661€ 2 140m Swe-Jagersro Caddie Eagle 1'13"2 Attelé
10/09/13 2 Trot 2 615€ 1 640m Swe-Jagersro Rocknroll Fi 1'14"3 Attelé
12/09/13 4 Trot 3 138€ 2 640m Swe-Aby Good As Princess 1'17"2 Attelé
13/09/13 0 Trot 4 707€ 1 640m Swe-Kalmar Lindy Later 1'12"4 Attelé
13/09/13 1 Trot 10 460€ 2 180m Swe-Kalmar Pearl Axe 1'12"9 Attelé
13/09/13 D Trot 10 460€ 3 160m Swe-Kalmar Speedy Streamline Attelé
13/09/13 3 Trot 10 460€ 2 140m Swe-Kalmar Latitude Broline 1'12"9 Attelé
16/09/13 4 Trot 2 092€ 1 640m Swe-Axevalla Zwack 1'13"3 Attelé
16/09/13 3 Trot 1 882€ 2 140m Swe-Axevalla Rosebud 1'16"3 Attelé
17/09/13 5 Trot 4 184€ 1 640m Swe-Jagersro Havbergs Mimi 1'12"6 Attelé
19/09/13 0 Trot 2 615€ 2 640m Swe-Jagersro Opal Svenstrup Attelé
21/09/13 3 Trot 11 506€ 2 140m Swe-Aby Elit Haleryd 1'13"0 Attelé
21/09/13 3 Trot 15 690€ 3 140m Swe-Aby Paolo America 1'15"0 Attelé
22/09/13 3 Trot 2 092€ 1 640m Swe-Halmstad Pilagardens Luxor 1'13"5 Attelé
23/09/13 6 Trot 2 092€ 1 640m Swe-Mantorp Buvisback 1'13"6 Attelé
24/09/13 0 Trot 4 184€ 2 140m Swe-Jagersro Nice Little Art 1'14"3 Attelé
26/09/13 4 Trot 3 661€ 1 640m Swe-Aby Shepard 1'12"3 Attelé
28/09/13 5 Trot 31 380€ 2 140m Swe-Solvalla Harry Haythrow 1'13"1 Attelé
29/09/13 4 Trot 146 443€ 2 140m Swe-Solvalla Neona Princess 1'13"8 Attelé
29/09/13 5 Trot 15 690€ 2 140m Swe-Solvalla Pearl Axe 1'12"9 Attelé
29/09/13 0 Trot 4 184€ 2 140m Swe-Solvalla Staro Hazel 1'15"7 Attelé
29/09/13 0 Trot 3 138€ 2 160m Swe-Solvalla Ice Cream Girl 1'18"2 Attelé
30/09/13 1 Trot 7 845€ 2 140m Swe-Halmstad Montgomery Hill 1'12"7 Attelé
30/09/13 2 Trot 3 661€ 2 140m Swe-Halmstad Rambo Flex Attelé